Terminal Aerodrome Forecast
Issued by NWS North Platte, NE

Home | Current Version | Previous Version | Graphics & Text | Print | Product List | Glossary On
Versions: 1 2 3 4 5 6 7 8 9 10 11 12 13 14 15
000
FTUS43 KLBF 222320
TAFVTN
TAF
KVTN 222320Z 2300/2324 36010KT P6SM FEW110
     FM230600 35006KT P6SM OVC120
     FM231200 32012G21KT P6SM OVC100
     FM231500 32015G24KT P6SM BKN100
     FM232000 32017G24KT P6SM SKC=

USA.gov is the U.S. government's official web portal to all federal, state and local government web resources and services.